Time;durP1;ratioP1;P1;durP2;ratioP2;P2;SDS_P1;SDS_P2;PMS_P1;PMS_P2;Temp;Humidity;BMP_temperature;BMP_pressure;BME280_temperature;BME280_humidity;BME280_pressure;Samples;Min_cycle;Max_cycle;Signal;HPM_P1;HPM_P2
2022/03/25 00:00:52;;;;;;;35.75;23.25;;;;;;;;;;5110803;28;20192;-75
2022/03/25 00:03:21;;;;;;;39.95;25.23;;;;;;;;;;5110678;28;20232;-78
2022/03/25 00:05:49;;;;;;;36.03;23.58;;;;;;;;;;5111258;28;20648;-77
2022/03/25 00:08:17;;;;;;;35.78;23.55;;;;;;;;;;5112944;28;20192;-78
2022/03/25 00:10:44;;;;;;;41.55;24.13;;;;;;;;;;5112529;28;20353;-77
2022/03/25 00:13:12;;;;;;;37.70;24.52;;;;;;;;;;5106750;28;20213;-76
2022/03/25 00:15:39;;;;;;;37.55;25.25;;;;;;;;;;5107746;28;20185;-78
2022/03/25 00:18:06;;;;;;;41.33;27.38;;;;;;;;;;5109469;28;20208;-79
2022/03/25 00:20:35;;;;;;;34.97;24.33;;;;;;;;;;5110020;28;20192;-77
2022/03/25 00:23:02;;;;;;;39.95;26.25;;;;;;;;;;5110266;28;20216;-79
2022/03/25 00:25:29;;;;;;;39.70;23.77;;;;;;;;;;5110664;28;20184;-79
2022/03/25 00:27:56;;;;;;;41.90;26.90;;;;;;;;;;5112024;28;20541;-79
2022/03/25 00:30:23;;;;;;;35.72;24.20;;;;;;;;;;5112076;28;20689;-76
2022/03/25 00:32:50;;;;;;;40.03;26.17;;;;;;;;;;5112010;28;20213;-76
2022/03/25 00:35:18;;;;;;;45.28;26.17;;;;;;;;;;5107208;28;20192;-75
2022/03/25 00:37:46;;;;;;;39.50;26.33;;;;;;;;;;5106666;28;20185;-76
2022/03/25 00:40:13;;;;;;;41.95;25.60;;;;;;;;;;5089125;28;20213;-78
2022/03/25 00:42:41;;;;;;;38.13;25.45;;;;;;;;;;5089124;28;20274;-77
2022/03/25 00:45:09;;;;;;;39.38;25.08;;;;;;;;;;5089505;28;20205;-78
2022/03/25 00:47:36;;;;;;;42.75;26.00;;;;;;;;;;5089999;28;20201;-77
2022/03/25 00:50:04;;;;;;;38.50;24.77;;;;;;;;;;5095847;28;20220;-78
2022/03/25 00:52:31;;;;;;;42.17;26.48;;;;;;;;;;5111978;28;20212;-78
2022/03/25 00:54:59;;;;;;;40.58;26.35;;;;;;;;;;5112091;28;20212;-77
2022/03/25 00:57:27;;;;;;;40.25;26.40;;;;;;;;;;5107587;28;20197;-78
2022/03/25 00:59:54;;;;;;;38.50;24.50;;;;;;;;;;5105812;28;20193;-77
2022/03/25 01:02:21;;;;;;;39.13;25.58;;;;;;;;;;5108439;28;20223;-76
2022/03/25 01:04:48;;;;;;;35.80;25.23;;;;;;;;;;5110066;28;20280;-76
2022/03/25 01:07:16;;;;;;;36.78;23.92;;;;;;;;;;5112373;28;20184;-76
2022/03/25 01:09:43;;;;;;;37.65;24.65;;;;;;;;;;5114811;28;20551;-77
2022/03/25 01:12:12;;;;;;;39.88;26.50;;;;;;;;;;5113367;28;20697;-76
2022/03/25 01:14:39;;;;;;;38.20;26.17;;;;;;;;;;5097919;28;20582;-76
2022/03/25 01:17:06;;;;;;;40.50;24.05;;;;;;;;;;5115655;28;20196;-78
2022/03/25 01:19:34;;;;;;;37.33;24.30;;;;;;;;;;5112597;28;20199;-76
2022/03/25 01:22:03;;;;;;;38.55;25.52;;;;;;;;;;5110332;28;20661;-75
2022/03/25 01:24:30;;;;;;;37.80;24.60;;;;;;;;;;5112035;28;20198;-77
2022/03/25 01:26:58;;;;;;;38.67;26.13;;;;;;;;;;5113719;28;20646;-77
2022/03/25 01:29:26;;;;;;;44.70;26.83;;;;;;;;;;5113322;28;20197;-78
2022/03/25 01:31:54;;;;;;;44.80;25.80;;;;;;;;;;5114125;28;20204;-76
2022/03/25 01:34:21;;;;;;;42.10;24.02;;;;;;;;;;5113731;28;20685;-77
2022/03/25 01:36:49;;;;;;;40.45;27.40;;;;;;;;;;5094852;28;20194;-75
2022/03/25 01:39:16;;;;;;;40.67;26.00;;;;;;;;;;5095148;28;20205;-76
2022/03/25 01:41:47;;;;;;;38.78;25.10;;;;;;;;;;5101113;28;20189;-76
2022/03/25 01:44:15;;;;;;;39.30;25.27;;;;;;;;;;5091336;28;20193;-80
2022/03/25 01:46:43;;;;;;;40.25;23.88;;;;;;;;;;5111245;28;20197;-77
2022/03/25 01:49:11;;;;;;;37.08;24.83;;;;;;;;;;5113133;28;20204;-77
2022/03/25 01:51:38;;;;;;;42.03;26.67;;;;;;;;;;5113051;28;20220;-76
2022/03/25 01:54:09;;;;;;;39.85;26.40;;;;;;;;;;5113399;28;20199;-77
2022/03/25 01:56:37;;;;;;;36.58;24.70;;;;;;;;;;5113615;28;20623;-78
2022/03/25 01:59:05;;;;;;;36.22;24.20;;;;;;;;;;5114415;28;20226;-76
2022/03/25 02:01:32;;;;;;;39.55;26.35;;;;;;;;;;5114988;28;20279;-77
2022/03/25 02:04:01;;;;;;;38.75;23.38;;;;;;;;;;5112796;28;20716;-76
2022/03/25 02:06:28;;;;;;;38.47;23.95;;;;;;;;;;5109458;28;20189;-77
2022/03/25 02:08:56;;;;;;;38.97;25.17;;;;;;;;;;5110172;28;20550;-78
2022/03/25 02:11:23;;;;;;;35.75;24.60;;;;;;;;;;5112219;28;20319;-77
2022/03/25 02:13:50;;;;;;;39.00;26.25;;;;;;;;;;5112448;28;20215;-75
2022/03/25 02:16:18;;;;;;;40.53;25.25;;;;;;;;;;5112908;28;20200;-77
2022/03/25 02:18:45;;;;;;;35.10;23.65;;;;;;;;;;5113144;28;20614;-75
2022/03/25 02:21:13;;;;;;;40.83;26.02;;;;;;;;;;5113263;28;20197;-78
2022/03/25 02:23:42;;;;;;;42.20;24.92;;;;;;;;;;5114453;28;20685;-77
2022/03/25 02:26:09;;;;;;;36.20;25.58;;;;;;;;;;5110054;28;20556;-78
2022/03/25 02:28:36;;;;;;;36.90;24.73;;;;;;;;;;5108266;28;20683;-76
2022/03/25 02:31:03;;;;;;;37.85;23.65;;;;;;;;;;5109681;28;20223;-78
2022/03/25 02:33:30;;;;;;;37.10;25.30;;;;;;;;;;5112142;28;20290;-78
2022/03/25 02:35:57;;;;;;;39.10;24.40;;;;;;;;;;5112229;28;20196;-76
2022/03/25 02:38:26;;;;;;;37.65;24.85;;;;;;;;;;5112175;28;20409;-78
2022/03/25 02:40:55;;;;;;;40.65;25.55;;;;;;;;;;5112929;28;20280;-77
2022/03/25 02:43:22;;;;;;;39.03;26.42;;;;;;;;;;5113333;28;20224;-76
2022/03/25 02:45:49;;;;;;;35.65;25.08;;;;;;;;;;5114060;28;20196;-76
2022/03/25 02:48:16;;;;;;;38.33;25.95;;;;;;;;;;5112239;28;20204;-75
2022/03/25 02:50:46;;;;;;;38.72;25.10;;;;;;;;;;5108345;28;20226;-77
2022/03/25 02:53:13;;;;;;;37.05;25.25;;;;;;;;;;5109421;28;20209;-75
2022/03/25 02:55:41;;;;;;;39.20;26.77;;;;;;;;;;5111989;28;20193;-75
2022/03/25 02:58:10;;;;;;;42.70;25.20;;;;;;;;;;5111637;28;20246;-77
2022/03/25 03:00:37;;;;;;;40.53;27.50;;;;;;;;;;5112076;28;20192;-76
2022/03/25 03:03:04;;;;;;;42.45;27.30;;;;;;;;;;5112362;28;20221;-77
2022/03/25 03:05:33;;;;;;;39.90;26.10;;;;;;;;;;5111174;28;20196;-77
2022/03/25 03:08:00;;;;;;;41.95;27.65;;;;;;;;;;5113625;28;20207;-79
2022/03/25 03:10:27;;;;;;;38.00;26.05;;;;;;;;;;5113212;28;20552;-76
2022/03/25 03:12:55;;;;;;;38.85;26.02;;;;;;;;;;5107907;28;20212;-77
2022/03/25 03:15:24;;;;;;;39.13;25.90;;;;;;;;;;5108678;28;20189;-77
2022/03/25 03:17:52;;;;;;;38.78;27.80;;;;;;;;;;5111121;28;20245;-77
2022/03/25 03:20:20;;;;;;;37.25;25.80;;;;;;;;;;5111288;28;20204;-77
2022/03/25 03:22:48;;;;;;;41.35;27.00;;;;;;;;;;5093343;28;20213;-76
2022/03/25 03:25:15;;;;;;;46.45;28.08;;;;;;;;;;5111628;28;20283;-75
2022/03/25 03:27:42;;;;;;;42.95;26.65;;;;;;;;;;5112276;28;20224;-76
2022/03/25 03:30:11;;;;;;;37.90;25.58;;;;;;;;;;5112563;28;20189;-78
2022/03/25 03:32:40;;;;;;;46.28;26.60;;;;;;;;;;5113131;28;20307;-78
2022/03/25 03:35:07;;;;;;;42.53;27.50;;;;;;;;;;5107496;28;20187;-77
2022/03/25 03:37:40;;;;;;;43.03;27.08;;;;;;;;;;5108244;28;20189;-76
2022/03/25 03:40:08;;;;;;;37.70;26.98;;;;;;;;;;5110301;28;20199;-76
2022/03/25 03:42:35;;;;;;;43.20;27.55;;;;;;;;;;5110531;28;20213;-79
2022/03/25 03:45:02;;;;;;;42.72;28.92;;;;;;;;;;5110926;28;20189;-77
2022/03/25 03:47:29;;;;;;;42.10;28.40;;;;;;;;;;5111372;28;20197;-76
2022/03/25 03:49:58;;;;;;;44.47;27.40;;;;;;;;;;5111433;28;20550;-78
2022/03/25 03:52:26;;;;;;;41.20;27.63;;;;;;;;;;5112889;28;20587;-77
2022/03/25 03:54:53;;;;;;;42.72;27.17;;;;;;;;;;5112894;28;20196;-79
2022/03/25 03:57:20;;;;;;;40.95;28.08;;;;;;;;;;5107648;28;20193;-79
2022/03/25 03:59:47;;;;;;;41.45;25.67;;;;;;;;;;5106850;28;20218;-77
2022/03/25 04:02:14;;;;;;;41.22;26.50;;;;;;;;;;5109862;28;20219;-75
2022/03/25 04:04:41;;;;;;;45.53;28.05;;;;;;;;;;5110536;28;20192;-76
2022/03/25 04:07:10;;;;;;;42.38;27.13;;;;;;;;;;5110824;28;20578;-76
2022/03/25 04:09:37;;;;;;;42.28;27.58;;;;;;;;;;5111202;28;20201;-78
2022/03/25 04:12:05;;;;;;;40.95;27.33;;;;;;;;;;5111295;28;20223;-80
2022/03/25 04:14:32;;;;;;;42.17;28.33;;;;;;;;;;5112740;28;20634;-77
2022/03/25 04:16:59;;;;;;;47.67;28.92;;;;;;;;;;5112555;28;20196;-78
2022/03/25 04:19:26;;;;;;;36.28;25.40;;;;;;;;;;5108328;28;20189;-76
2022/03/25 04:21:54;;;;;;;39.72;27.23;;;;;;;;;;5106814;28;20205;-75
2022/03/25 04:24:22;;;;;;;39.22;26.88;;;;;;;;;;5109367;28;20196;-77
2022/03/25 04:26:49;;;;;;;44.67;28.20;;;;;;;;;;5111966;28;20185;-76
2022/03/25 04:29:18;;;;;;;38.83;26.83;;;;;;;;;;5109730;28;20192;-75
2022/03/25 04:31:45;;;;;;;46.45;30.23;;;;;;;;;;5110316;28;20221;-76
2022/03/25 04:34:13;;;;;;;40.63;28.00;;;;;;;;;;5110037;28;20192;-77
2022/03/25 04:36:40;;;;;;;38.83;25.58;;;;;;;;;;5108291;28;20203;-76
2022/03/25 04:39:07;;;;;;;36.17;25.05;;;;;;;;;;5105371;28;20261;-76
2022/03/25 04:41:35;;;;;;;36.10;24.58;;;;;;;;;;5106755;28;20193;-78
2022/03/25 04:44:03;;;;;;;36.67;25.80;;;;;;;;;;5109070;28;20551;-77
2022/03/25 04:46:30;;;;;;;43.97;26.67;;;;;;;;;;5109933;28;20649;-76
2022/03/25 04:48:57;;;;;;;36.25;25.70;;;;;;;;;;5110164;28;20618;-79
2022/03/25 04:51:24;;;;;;;39.97;26.90;;;;;;;;;;5109386;28;20220;-78
2022/03/25 04:53:51;;;;;;;45.50;28.20;;;;;;;;;;5110207;28;20218;-80
2022/03/25 04:56:19;;;;;;;37.13;26.80;;;;;;;;;;5106075;28;20551;-77
2022/03/25 04:58:48;;;;;;;38.88;27.30;;;;;;;;;;5106613;28;20385;-78
2022/03/25 05:01:15;;;;;;;38.80;27.77;;;;;;;;;;5109754;28;20814;-78
2022/03/25 05:03:42;;;;;;;37.55;25.48;;;;;;;;;;5108985;28;20235;-77
2022/03/25 05:06:09;;;;;;;38.90;26.35;;;;;;;;;;5109617;28;20188;-78
2022/03/25 05:08:36;;;;;;;44.25;27.95;;;;;;;;;;5109852;28;20216;-76
2022/03/25 05:11:03;;;;;;;40.40;26.60;;;;;;;;;;5110182;28;20231;-77
2022/03/25 05:13:31;;;;;;;41.83;26.63;;;;;;;;;;5111820;28;20216;-77
2022/03/25 05:15:59;;;;;;;42.13;26.95;;;;;;;;;;5111241;28;20590;-77
2022/03/25 05:18:26;;;;;;;42.08;28.25;;;;;;;;;;5106193;28;20187;-79
2022/03/25 05:20:54;;;;;;;39.03;27.73;;;;;;;;;;5106636;28;20193;-75
2022/03/25 05:23:22;;;;;;;38.78;25.38;;;;;;;;;;5110858;28;20220;-75
2022/03/25 05:25:50;;;;;;;40.15;27.67;;;;;;;;;;5112643;28;20660;-82
2022/03/25 05:28:17;;;;;;;46.92;27.98;;;;;;;;;;5110498;28;20192;-75
2022/03/25 05:30:45;;;;;;;39.05;26.35;;;;;;;;;;5109831;28;20288;-76
2022/03/25 05:33:33;;;;;;;41.25;27.63;;;;;;;;;;5065235;28;20348;-75
2022/03/25 05:36:00;;;;;;;46.15;28.80;;;;;;;;;;5061231;28;20655;-74
2022/03/25 05:38:27;;;;;;;45.90;26.85;;;;;;;;;;5061115;28;20195;-75
2022/03/25 05:40:54;;;;;;;41.50;28.40;;;;;;;;;;5065069;28;20221;-75
2022/03/25 05:43:22;;;;;;;40.00;28.17;;;;;;;;;;5065382;28;20716;-74
2022/03/25 05:45:49;;;;;;;42.45;27.17;;;;;;;;;;5065844;28;20198;-74
2022/03/25 05:48:16;;;;;;;41.97;28.48;;;;;;;;;;5066562;28;20198;-75
2022/03/25 05:50:44;;;;;;;42.80;27.10;;;;;;;;;;5071362;28;20202;-76
2022/03/25 05:53:12;;;;;;;40.72;27.35;;;;;;;;;;5092545;28;20681;-75
2022/03/25 05:55:39;;;;;;;42.35;28.42;;;;;;;;;;5106215;28;20189;-76
2022/03/25 05:58:07;;;;;;;35.65;25.77;;;;;;;;;;5108742;28;20189;-77
2022/03/25 06:00:34;;;;;;;40.08;25.15;;;;;;;;;;5111945;28;21005;-77
2022/03/25 06:03:01;;;;;;;41.22;26.95;;;;;;;;;;5090838;28;20694;-76
2022/03/25 06:05:28;;;;;;;43.30;29.13;;;;;;;;;;5092297;28;20204;-76
2022/03/25 06:07:57;;;;;;;40.45;27.65;;;;;;;;;;5093057;28;20242;-76
2022/03/25 06:10:25;;;;;;;36.90;25.52;;;;;;;;;;5091987;28;20560;-76
2022/03/25 06:12:52;;;;;;;35.30;25.70;;;;;;;;;;5094350;28;20229;-77
2022/03/25 06:15:19;;;;;;;39.78;26.00;;;;;;;;;;5094439;28;20197;-76
2022/03/25 06:17:46;;;;;;;41.17;25.58;;;;;;;;;;5090029;28;20615;-76
2022/03/25 06:20:14;;;;;;;42.53;28.02;;;;;;;;;;5088566;28;20196;-76
2022/03/25 06:22:41;;;;;;;37.58;25.50;;;;;;;;;;5091180;28;20209;-76
2022/03/25 06:25:11;;;;;;;36.25;25.85;;;;;;;;;;5092044;28;20196;-76
2022/03/25 06:27:46;;;;;;;43.00;29.02;;;;;;;;;;5091781;28;20650;-77
2022/03/25 06:30:16;;;;;;;45.03;30.20;;;;;;;;;;5091380;28;20546;-76
2022/03/25 06:32:43;;;;;;;44.35;29.20;;;;;;;;;;5091772;28;20682;-75
2022/03/25 06:35:10;;;;;;;38.30;27.65;;;;;;;;;;5093985;28;20208;-77
2022/03/25 06:37:38;;;;;;;45.67;28.48;;;;;;;;;;5093753;28;20200;-75
2022/03/25 06:40:07;;;;;;;43.08;27.80;;;;;;;;;;5090234;28;20189;-76
2022/03/25 06:42:36;;;;;;;49.63;30.02;;;;;;;;;;5078381;28;20679;-77
2022/03/25 06:45:03;;;;;;;47.80;29.60;;;;;;;;;;5090171;28;20200;-75
2022/03/25 06:47:31;;;;;;;44.63;29.53;;;;;;;;;;5091405;28;20439;-77
2022/03/25 06:49:58;;;;;;;43.73;27.83;;;;;;;;;;5091468;28;20442;-78
2022/03/25 06:52:26;;;;;;;44.40;29.60;;;;;;;;;;5091447;28;20487;-77
2022/03/25 06:54:53;;;;;;;45.90;29.23;;;;;;;;;;5091069;28;20518;-77
2022/03/25 06:57:21;;;;;;;42.43;30.30;;;;;;;;;;5090249;28;20432;-76
2022/03/25 06:59:49;;;;;;;43.40;31.07;;;;;;;;;;5088094;28;20519;-78
2022/03/25 07:02:17;;;;;;;41.30;29.83;;;;;;;;;;5088172;28;20501;-78
2022/03/25 07:04:44;;;;;;;40.53;29.83;;;;;;;;;;5110718;28;20438;-79
2022/03/25 07:07:12;;;;;;;43.00;29.57;;;;;;;;;;5111439;28;20433;-77
2022/03/25 07:09:39;;;;;;;37.20;27.37;;;;;;;;;;5112125;28;20442;-77
2022/03/25 07:12:07;;;;;;;38.53;29.37;;;;;;;;;;5111978;28;20494;-75
2022/03/25 07:14:34;;;;;;;45.40;27.63;;;;;;;;;;5096412;28;20447;-76
2022/03/25 07:17:03;;;;;;;41.30;28.50;;;;;;;;;;5112683;28;20431;-77
2022/03/25 07:19:30;;;;;;;39.57;29.73;;;;;;;;;;5110290;28;20449;-76
2022/03/25 07:21:57;;;;;;;39.83;28.40;;;;;;;;;;5107558;28;20973;-77
2022/03/25 07:24:24;;;;;;;38.37;28.60;;;;;;;;;;5109307;28;20802;-79
2022/03/25 07:26:51;;;;;;;41.73;29.87;;;;;;;;;;5110512;28;20434;-78
2022/03/25 07:29:18;;;;;;;43.87;30.63;;;;;;;;;;5110858;28;20474;-78
2022/03/25 07:31:46;;;;;;;44.80;31.30;;;;;;;;;;5108796;28;20489;-76
2022/03/25 07:34:14;;;;;;;42.80;30.57;;;;;;;;;;5091799;28;20809;-76
2022/03/25 07:36:41;;;;;;;42.53;31.60;;;;;;;;;;5096355;28;20450;-79
2022/03/25 07:39:08;;;;;;;40.70;31.70;;;;;;;;;;5108710;28;20454;-78
2022/03/25 07:41:35;;;;;;;41.83;30.23;;;;;;;;;;5109310;28;20487;-76
2022/03/25 07:44:03;;;;;;;46.57;33.20;;;;;;;;;;5110151;28;20454;-77
2022/03/25 07:46:30;;;;;;;48.00;33.37;;;;;;;;;;5112264;28;20881;-75
2022/03/25 07:48:57;;;;;;;47.50;32.27;;;;;;;;;;5096890;28;20459;-76
2022/03/25 07:51:26;;;;;;;43.80;31.20;;;;;;;;;;5092432;28;20459;-82
2022/03/25 07:53:53;;;;;;;48.57;34.63;;;;;;;;;;5093140;28;20483;-79
2022/03/25 07:56:20;;;;;;;39.93;31.63;;;;;;;;;;5099569;28;20451;-78
2022/03/25 07:58:47;;;;;;;47.10;32.73;;;;;;;;;;5110027;28;20447;-79
2022/03/25 08:01:15;;;;;;;47.00;32.87;;;;;;;;;;5110529;28;20440;-78
2022/03/25 08:03:42;;;;;;;49.20;33.13;;;;;;;;;;5111465;28;20534;-78
2022/03/25 08:06:10;;;;;;;50.33;34.17;;;;;;;;;;5111792;28;20450;-80
2022/03/25 08:08:38;;;;;;;46.03;35.07;;;;;;;;;;5111901;28;20447;-78
2022/03/25 08:11:06;;;;;;;50.07;35.17;;;;;;;;;;5097792;28;20446;-80
2022/03/25 08:13:34;;;;;;;45.67;33.20;;;;;;;;;;5097193;28;20583;-80
2022/03/25 08:16:01;;;;;;;44.33;34.80;;;;;;;;;;5110539;28;20460;-81
2022/03/25 08:18:28;;;;;;;49.57;36.03;;;;;;;;;;5113657;28;20446;-83
2022/03/25 08:20:57;;;;;;;49.33;34.53;;;;;;;;;;5107953;28;20500;-78
2022/03/25 08:28:50;;;;;;;52.20;32.73;;;;;;;;;;5094652;28;20528;-81
2022/03/25 08:31:17;;;;;;;43.67;32.23;;;;;;;;;;5111759;28;20445;-81
2022/03/25 08:33:44;;;;;;;48.47;35.10;;;;;;;;;;5111820;28;20493;-78
2022/03/25 08:36:11;;;;;;;46.43;33.60;;;;;;;;;;5101105;28;20462;-80
2022/03/25 08:38:39;;;;;;;48.50;35.93;;;;;;;;;;5093035;28;20447;-82
2022/03/25 08:41:07;;;;;;;46.00;34.10;;;;;;;;;;5081041;28;20935;-80
2022/03/25 08:43:34;;;;;;;52.80;35.83;;;;;;;;;;5108122;28;20468;-80
2022/03/25 08:46:03;;;;;;;47.67;34.53;;;;;;;;;;5109096;28;20815;-77
2022/03/25 08:48:30;;;;;;;45.00;33.40;;;;;;;;;;5110475;28;20469;-78
2022/03/25 08:50:57;;;;;;;43.23;34.60;;;;;;;;;;5110794;28;20445;-81
2022/03/25 08:53:24;;;;;;;51.53;34.17;;;;;;;;;;5111109;28;20542;-77
2022/03/25 08:55:51;;;;;;;45.37;34.30;;;;;;;;;;5111779;28;20562;-77
2022/03/25 08:58:20;;;;;;;43.73;32.83;;;;;;;;;;5103636;28;20454;-79
2022/03/25 09:00:47;;;;;;;42.13;32.90;;;;;;;;;;5092607;28;20455;-81
2022/03/25 09:03:14;;;;;;;42.40;30.80;;;;;;;;;;5092171;28;20470;-77
2022/03/25 09:05:41;;;;;;;45.47;32.03;;;;;;;;;;5103902;28;20465;-81
2022/03/25 09:08:09;;;;;;;40.50;31.40;;;;;;;;;;5087745;28;20454;-76
2022/03/25 09:10:36;;;;;;;51.73;34.70;;;;;;;;;;5089071;28;20445;-80
2022/03/25 09:13:03;;;;;;;43.30;33.60;;;;;;;;;;5094449;28;20544;-79
2022/03/25 09:15:32;;;;;;;48.47;33.57;;;;;;;;;;5108529;28;20470;-80
2022/03/25 09:17:59;;;;;;;50.63;36.07;;;;;;;;;;5091599;28;20454;-78
2022/03/25 09:20:26;;;;;;;41.70;32.33;;;;;;;;;;5090575;28;20482;-76
2022/03/25 09:22:54;;;;;;;43.17;32.93;;;;;;;;;;5092308;28;20455;-78
2022/03/25 09:25:22;;;;;;;42.23;31.90;;;;;;;;;;5096377;28;20450;-76
2022/03/25 09:27:49;;;;;;;44.90;33.00;;;;;;;;;;5112291;28;20931;-77
2022/03/25 09:30:16;;;;;;;47.57;35.43;;;;;;;;;;5111007;28;20458;-77
2022/03/25 09:32:45;;;;;;;39.57;31.97;;;;;;;;;;5112161;28;20478;-78
2022/03/25 09:35:14;;;;;;;46.70;32.63;;;;;;;;;;5112472;28;20470;-75
2022/03/25 09:37:42;;;;;;;48.33;34.27;;;;;;;;;;5094100;28;20537;-77
2022/03/25 09:40:12;;;;;;;47.80;31.37;;;;;;;;;;5107040;28;20510;-78
2022/03/25 09:42:39;;;;;;;44.43;31.40;;;;;;;;;;5100948;28;20467;-75
2022/03/25 09:45:08;;;;;;;41.67;29.73;;;;;;;;;;5078952;28;20455;-77
2022/03/25 09:47:35;;;;;;;46.70;32.97;;;;;;;;;;5082799;28;20443;-75
2022/03/25 09:50:05;;;;;;;44.00;32.40;;;;;;;;;;5108704;28;20836;-84
2022/03/25 09:52:33;;;;;;;38.90;30.60;;;;;;;;;;5111797;28;20466;-79
2022/03/25 09:55:00;;;;;;;40.57;30.70;;;;;;;;;;5112194;28;20445;-77
2022/03/25 09:57:28;;;;;;;47.40;30.07;;;;;;;;;;5113973;28;20438;-78
2022/03/25 09:59:55;;;;;;;43.07;30.60;;;;;;;;;;5114341;28;20441;-78
2022/03/25 10:02:22;;;;;;;41.00;31.20;;;;;;;;;;5114347;28;20834;-80
2022/03/25 10:04:50;;;;;;;39.50;26.60;;;;;;;;;;5117639;28;20449;-77
2022/03/25 10:07:19;;;;;;;40.80;31.33;;;;;;;;;;5114608;28;20501;-81
2022/03/25 10:09:47;;;;;;;39.80;29.83;;;;;;;;;;5115801;28;20540;-80
2022/03/25 10:12:23;;;;;;;39.07;27.53;;;;;;;;;;5115760;28;20465;-78
2022/03/25 10:14:51;;;;;;;34.03;25.60;;;;;;;;;;5111475;28;20434;-76
2022/03/25 10:17:18;;;;;;;34.80;25.77;;;;;;;;;;5112396;28;20434;-77
2022/03/25 10:19:49;;;;;;;30.63;25.20;;;;;;;;;;5113356;28;20446;-75
2022/03/25 10:22:18;;;;;;;36.23;25.30;;;;;;;;;;5113754;28;20793;-81
2022/03/25 10:24:48;;;;;;;34.00;26.73;;;;;;;;;;5097081;28;20794;-80
2022/03/25 10:27:18;;;;;;;37.43;25.50;;;;;;;;;;5114335;28;20442;-78
2022/03/25 10:29:46;;;;;;;33.50;21.90;;;;;;;;;;5092959;28;20451;-80
2022/03/25 10:32:14;;;;;;;35.60;24.07;;;;;;;;;;5095175;28;20467;-79
2022/03/25 10:34:42;;;;;;;36.93;23.77;;;;;;;;;;5095220;28;20920;-78
2022/03/25 10:37:11;;;;;;;29.23;23.50;;;;;;;;;;5091013;28;20435;-77
2022/03/25 10:39:39;;;;;;;34.60;20.47;;;;;;;;;;5109749;28;20439;-81
2022/03/25 10:42:09;;;;;;;29.80;22.10;;;;;;;;;;5074829;28;20460;-79
2022/03/25 10:44:37;;;;;;;31.03;22.03;;;;;;;;;;5092774;28;20947;-78
2022/03/25 10:47:19;;;;;;;34.57;23.40;;;;;;;;;;5075331;28;20443;-78
2022/03/25 10:49:48;;;;;;;31.80;23.10;;;;;;;;;;5077987;28;20441;-80
2022/03/25 10:52:21;;;;;;;32.33;19.13;;;;;;;;;;5075596;28;20832;-77
2022/03/25 10:54:48;;;;;;;21.47;14.63;;;;;;;;;;5076846;28;20443;-79
2022/03/25 10:57:18;;;;;;;20.97;12.90;;;;;;;;;;5094616;28;20448;-78
2022/03/25 10:59:58;;;;;;;20.17;11.57;;;;;;;;;;5108713;28;20431;-80
2022/03/25 11:02:25;;;;;;;10.93;7.60;;;;;;;;;;5110147;28;20476;-79
2022/03/25 11:04:52;;;;;;;11.40;7.07;;;;;;;;;;5111880;28;20475;-78
2022/03/25 11:07:22;;;;;;;11.70;5.90;;;;;;;;;;5112689;28;20413;-80
2022/03/25 11:09:50;;;;;;;12.83;6.03;;;;;;;;;;5112633;28;20417;-76
2022/03/25 11:14:55;;;;;;;11.17;6.50;;;;;;;;;;5098180;22;20494;-79
2022/03/25 11:17:22;;;;;;;12.97;6.70;;;;;;;;;;5062622;28;20446;-78
2022/03/25 11:19:50;;;;;;;10.00;7.50;;;;;;;;;;5057441;28;20495;-80
2022/03/25 11:22:17;;;;;;;14.73;7.63;;;;;;;;;;5052341;28;20445;-77
2022/03/25 11:24:46;;;;;;;11.73;7.20;;;;;;;;;;5050451;28;20441;-77
2022/03/25 11:27:17;;;;;;;14.50;6.57;;;;;;;;;;5050819;28;20438;-76
2022/03/25 11:29:45;;;;;;;10.77;7.13;;;;;;;;;;5053958;28;20781;-78
2022/03/25 11:32:17;;;;;;;13.93;6.87;;;;;;;;;;5052061;28;20869;-79
2022/03/25 11:34:44;;;;;;;12.40;7.37;;;;;;;;;;5054874;28;20484;-78
2022/03/25 11:37:21;;;;;;;10.23;7.20;;;;;;;;;;5072679;28;20915;-78
2022/03/25 11:39:49;;;;;;;17.07;8.23;;;;;;;;;;5063635;28;20475;-76
2022/03/25 11:42:31;;;;;;;16.33;8.20;;;;;;;;;;5038703;28;20435;-83
2022/03/25 11:45:12;;;;;;;14.93;8.63;;;;;;;;;;5050925;28;20773;-77
2022/03/25 11:47:41;;;;;;;10.43;8.10;;;;;;;;;;5054612;28;20444;-81
2022/03/25 11:50:23;;;;;;;12.20;7.53;;;;;;;;;;5069942;28;20441;-79
2022/03/25 11:52:50;;;;;;;10.97;7.70;;;;;;;;;;5055542;28;20464;-82
2022/03/25 11:55:18;;;;;;;14.97;8.00;;;;;;;;;;5070893;28;20468;-76
2022/03/25 11:57:46;;;;;;;12.73;8.93;;;;;;;;;;5072294;28;20447;-81
2022/03/25 12:00:23;;;;;;;12.73;8.50;;;;;;;;;;5072287;28;20436;-76
2022/03/25 12:03:02;;;;;;;13.90;8.97;;;;;;;;;;5042706;28;20809;-81
2022/03/25 12:05:37;;;;;;;15.50;8.70;;;;;;;;;;5037499;28;20463;-77
2022/03/25 12:08:19;;;;;;;15.60;8.20;;;;;;;;;;5068812;28;20440;-80
2022/03/25 12:10:46;;;;;;;12.80;8.20;;;;;;;;;;5068667;28;20455;-77
2022/03/25 12:13:14;;;;;;;11.20;7.67;;;;;;;;;;5070600;28;20496;-81
2022/03/25 12:15:41;;;;;;;19.73;9.10;;;;;;;;;;5069738;28;20435;-79
2022/03/25 12:18:23;;;;;;;17.80;10.10;;;;;;;;;;5067584;28;20468;-76
2022/03/25 12:20:52;;;;;;;16.37;9.33;;;;;;;;;;5055095;28;20452;-77
2022/03/25 12:23:19;;;;;;;17.20;11.10;;;;;;;;;;5059155;28;20464;-79
2022/03/25 12:25:46;;;;;;;11.73;8.60;;;;;;;;;;5069389;28;20441;-81
2022/03/25 12:28:13;;;;;;;13.33;8.70;;;;;;;;;;5069812;28;20451;-76
2022/03/25 12:30:42;;;;;;;19.67;9.73;;;;;;;;;;5066475;28;20547;-83
2022/03/25 12:33:09;;;;;;;13.37;9.80;;;;;;;;;;5065420;28;20492;-80
2022/03/25 12:35:38;;;;;;;13.43;8.90;;;;;;;;;;5083183;28;20436;-81
2022/03/25 12:38:19;;;;;;;19.23;10.60;;;;;;;;;;5074316;28;20494;-78
2022/03/25 12:40:47;;;;;;;20.30;11.87;;;;;;;;;;5070532;28;21013;-83
2022/03/25 12:43:14;;;;;;;18.40;11.53;;;;;;;;;;5056705;28;20551;-82
2022/03/25 12:45:41;;;;;;;20.97;12.60;;;;;;;;;;5053676;28;20429;-82
2022/03/25 12:48:10;;;;;;;15.90;9.53;;;;;;;;;;5045893;28;20801;-75
2022/03/25 12:50:37;;;;;;;20.87;11.83;;;;;;;;;;5062805;28;20936;-77
2022/03/25 12:53:05;;;;;;;17.10;10.20;;;;;;;;;;5065880;28;20496;-77
2022/03/25 12:55:35;;;;;;;12.93;9.47;;;;;;;;;;5066511;28;20451;-77
2022/03/25 12:58:03;;;;;;;19.07;11.93;;;;;;;;;;5066324;28;20468;-81
2022/03/25 13:00:35;;;;;;;15.30;11.23;;;;;;;;;;5055037;28;20433;-76
2022/03/25 13:03:02;;;;;;;17.27;10.70;;;;;;;;;;5052533;28;20448;-80
2022/03/25 13:05:29;;;;;;;16.03;10.00;;;;;;;;;;5065520;28;20444;-76
2022/03/25 13:07:57;;;;;;;15.97;11.40;;;;;;;;;;5066148;28;20447;-78
2022/03/25 13:10:25;;;;;;;18.30;11.50;;;;;;;;;;5066421;28;20448;-79
2022/03/25 13:12:54;;;;;;;24.33;13.67;;;;;;;;;;5039308;28;21509;-81
2022/03/25 13:15:25;;;;;;;14.80;10.40;;;;;;;;;;5056175;28;20483;-79
2022/03/25 13:17:53;;;;;;;22.20;11.10;;;;;;;;;;5058140;28;20440;-79
2022/03/25 13:20:22;;;;;;;17.93;10.40;;;;;;;;;;5051509;28;21052;-81
2022/03/25 13:22:57;;;;;;;13.93;9.63;;;;;;;;;;5062531;28;20460;-78
2022/03/25 13:25:25;;;;;;;18.80;11.07;;;;;;;;;;5064373;28;20434;-79
2022/03/25 13:27:55;;;;;;;17.53;9.63;;;;;;;;;;5066143;28;20424;-83
2022/03/25 13:30:23;;;;;;;20.73;11.50;;;;;;;;;;5066370;28;20465;-78
2022/03/25 13:32:58;;;;;;;14.53;10.13;;;;;;;;;;5064189;28;20495;-78
2022/03/25 13:35:31;;;;;;;14.30;9.37;;;;;;;;;;5068821;28;20468;-79
2022/03/25 13:37:59;;;;;;;12.03;8.93;;;;;;;;;;5068454;28;20445;-79
2022/03/25 13:40:32;;;;;;;23.37;11.17;;;;;;;;;;5060467;28;20441;-75
2022/03/25 13:43:01;;;;;;;17.47;10.07;;;;;;;;;;5037923;22;20496;-76
2022/03/25 13:45:28;;;;;;;17.17;9.43;;;;;;;;;;5021713;28;20549;-78
2022/03/25 13:48:00;;;;;;;19.23;8.93;;;;;;;;;;5025343;28;20448;-86
2022/03/25 13:50:28;;;;;;;18.10;9.63;;;;;;;;;;5014414;28;20757;-80
2022/03/25 13:52:56;;;;;;;18.97;9.20;;;;;;;;;;4994857;28;20460;-82
2022/03/25 13:55:32;;;;;;;14.43;9.20;;;;;;;;;;4996611;28;20489;-80
2022/03/25 13:58:01;;;;;;;16.60;9.30;;;;;;;;;;5005830;28;20435;-79
2022/03/25 14:00:30;;;;;;;14.77;8.97;;;;;;;;;;5001470;28;20455;-77
2022/03/25 14:02:58;;;;;;;14.60;8.87;;;;;;;;;;5003577;28;20473;-77
2022/03/25 14:05:25;;;;;;;13.30;8.80;;;;;;;;;;5006742;28;20446;-76
2022/03/25 14:07:53;;;;;;;11.43;8.50;;;;;;;;;;5005804;28;20455;-75
2022/03/25 14:10:20;;;;;;;15.20;9.10;;;;;;;;;;5008944;28;20447;-76
2022/03/25 14:12:56;;;;;;;13.03;9.03;;;;;;;;;;5003003;28;20503;-76
2022/03/25 14:15:26;;;;;;;15.37;9.30;;;;;;;;;;5005026;28;20491;-76
2022/03/25 14:17:53;;;;;;;17.60;8.23;;;;;;;;;;4994535;28;20445;-76
2022/03/25 14:20:22;;;;;;;12.70;8.53;;;;;;;;;;4998874;28;20443;-76
2022/03/25 14:22:50;;;;;;;13.60;9.00;;;;;;;;;;5008181;28;20863;-75
2022/03/25 14:25:18;;;;;;;12.80;8.50;;;;;;;;;;5009673;28;20451;-75
2022/03/25 14:27:47;;;;;;;14.77;8.50;;;;;;;;;;5012425;28;20452;-75
2022/03/25 14:30:14;;;;;;;12.00;8.70;;;;;;;;;;5012460;28;20443;-74
2022/03/25 14:32:43;;;;;;;16.00;9.07;;;;;;;;;;5010917;28;20468;-75